createdAt,value
2018-12-22T00:00:39.676Z,50.26
2018-12-22T00:01:39.611Z,49.78
2018-12-22T00:02:39.525Z,49.30
2018-12-22T00:03:39.454Z,49.49
2018-12-22T00:04:39.379Z,48.54
2018-12-22T00:05:39.326Z,48.07
2018-12-22T00:06:39.280Z,47.78
2018-12-22T00:07:39.181Z,48.07
2018-12-22T00:08:39.134Z,48.63
2018-12-22T00:09:39.029Z,48.83
2018-12-22T00:10:38.960Z,49.30
2018-12-22T00:11:38.887Z,49.68
2018-12-22T00:12:38.832Z,50.26
2018-12-22T00:13:38.753Z,50.16
2018-12-22T00:14:38.682Z,51.02
2018-12-22T00:15:38.618Z,50.63
2018-12-22T00:16:38.549Z,50.26
2018-12-22T00:17:38.469Z,50.45
2018-12-22T00:18:38.396Z,50.26
2018-12-22T00:19:38.330Z,49.78
2018-12-22T00:20:38.258Z,49.11
2018-12-22T00:21:38.182Z,48.73
2018-12-22T00:22:38.104Z,48.73
2018-12-22T00:23:38.032Z,48.63
2018-12-22T00:24:37.960Z,48.63
2018-12-22T00:25:37.897Z,48.63
2018-12-22T00:26:37.843Z,48.83
2018-12-22T00:27:38.826Z,49.49
2018-12-22T00:28:37.686Z,49.97
2018-12-22T00:29:37.619Z,49.97
2018-12-22T00:30:37.540Z,50.54
2018-12-22T00:31:37.469Z,50.73
2018-12-22T00:32:37.402Z,51.12
2018-12-22T00:33:37.317Z,51.12
2018-12-22T00:34:37.249Z,51.50
2018-12-22T00:35:37.177Z,51.50
2018-12-22T00:36:37.124Z,51.68
2018-12-22T00:37:37.045Z,51.68
2018-12-22T00:38:36.974Z,49.97
2018-12-22T00:39:36.891Z,49.11
2018-12-22T00:40:36.826Z,48.73
2018-12-22T00:41:36.758Z,48.83
2018-12-22T00:42:36.687Z,49.02
2018-12-22T00:43:36.612Z,47.97
2018-12-22T00:44:36.566Z,48.16
2018-12-22T00:45:36.487Z,48.16
2018-12-22T00:46:36.394Z,49.30
2018-12-22T00:47:36.331Z,49.02
2018-12-22T00:48:36.272Z,48.35
2018-12-22T00:49:36.197Z,48.35
2018-12-22T00:50:36.114Z,47.39
2018-12-22T00:51:36.040Z,47.58
2018-12-22T00:52:35.967Z,47.58
2018-12-22T00:53:35.910Z,45.87
2018-12-22T00:54:35.833Z,43.75
2018-12-22T00:55:35.762Z,42.03
2018-12-22T00:56:35.694Z,41.27
2018-12-22T00:57:35.615Z,40.32
2018-12-22T00:58:35.538Z,39.65
2018-12-22T00:59:35.465Z,37.65
2018-12-22T01:00:35.399Z,37.46
2018-12-22T01:01:35.348Z,37.93
2018-12-22T01:02:35.263Z,38.03
2018-12-22T01:03:35.185Z,39.08
2018-12-22T01:04:35.113Z,39.84
2018-12-22T01:05:35.070Z,39.94
2018-12-22T01:06:34.975Z,39.94
2018-12-22T01:07:34.908Z,40.80
2018-12-22T01:08:34.844Z,39.56
2018-12-22T01:09:34.754Z,37.55
2018-12-22T01:10:34.707Z,37.36
2018-12-22T01:11:34.611Z,37.36
2018-12-22T01:12:34.540Z,38.41
2018-12-22T01:13:34.478Z,38.32
2018-12-22T01:14:34.407Z,39.46
2018-12-22T01:15:34.333Z,39.84
2018-12-22T01:16:34.271Z,40.70
2018-12-22T01:17:34.199Z,41.84
2018-12-22T01:18:34.104Z,42.24
2018-12-22T01:19:34.054Z,43.27
2018-12-22T01:20:33.977Z,44.53
2018-12-22T01:21:33.897Z,44.73
2018-12-22T01:22:33.822Z,45.39
2018-12-22T01:23:33.780Z,46.34
2018-12-22T01:24:33.678Z,47.49
2018-12-22T01:25:33.616Z,48.16
2018-12-22T01:26:33.545Z,48.92
2018-12-22T01:27:33.473Z,49.21
2018-12-22T01:28:39.399Z,50.16
2018-12-22T01:29:33.336Z,49.97
2018-12-22T01:30:33.248Z,49.30
2018-12-22T01:31:33.198Z,49.40
2018-12-22T01:32:33.104Z,48.23
2018-12-22T01:33:33.043Z,48.61
2018-12-22T01:34:32.976Z,48.83
2018-12-22T01:35:32.894Z,48.35
2018-12-22T01:36:32.819Z,48.83
2018-12-22T01:37:32.760Z,49.21
2018-12-22T01:38:32.688Z,49.68
2018-12-22T01:39:32.615Z,49.40
2018-12-22T01:40:32.543Z,49.40
2018-12-22T01:41:32.461Z,49.40
2018-12-22T01:42:32.406Z,49.11
2018-12-22T01:43:32.334Z,49.11
2018-12-22T01:44:32.260Z,49.40
2018-12-22T01:45:32.192Z,50.16
2018-12-22T01:46:32.223Z,50.16
2018-12-22T01:47:32.033Z,50.07
2018-12-22T01:48:31.980Z,49.97
2018-12-22T01:49:31.921Z,49.78
2018-12-22T01:50:31.826Z,49.78
2018-12-22T01:51:31.761Z,49.97
2018-12-22T01:52:31.692Z,50.54
2018-12-22T01:53:31.613Z,50.45
2018-12-22T01:54:31.539Z,50.16
2018-12-22T01:55:31.465Z,50.54
2018-12-22T01:56:31.399Z,51.21
2018-12-22T01:57:31.417Z,51.09
2018-12-22T01:58:31.251Z,50.61
2018-12-22T01:59:31.175Z,48.32
2018-12-22T02:00:31.097Z,46.70
2018-12-22T02:01:31.035Z,45.08
2018-12-22T02:02:30.964Z,44.32
2018-12-22T02:03:30.891Z,43.65
2018-12-22T02:04:30.820Z,43.56
2018-12-22T02:05:30.765Z,43.08
2018-12-22T02:06:37.606Z,42.80
2018-12-22T02:07:30.608Z,42.22
2018-12-22T02:08:30.529Z,41.46
2018-12-22T02:09:30.455Z,41.84
2018-12-22T02:10:30.382Z,42.41
2018-12-22T02:11:30.309Z,42.60
2018-12-22T02:12:30.251Z,43.27
2018-12-22T02:13:30.176Z,43.46
2018-12-22T02:14:30.095Z,43.94
2018-12-22T02:15:30.025Z,44.51
2018-12-22T02:16:29.957Z,44.60
2018-12-22T02:17:29.888Z,44.80
2018-12-22T02:18:29.812Z,45.08
2018-12-22T02:19:29.740Z,45.47
2018-12-22T02:20:29.659Z,46.89
2018-12-22T02:21:29.589Z,46.89
2018-12-22T02:22:29.528Z,46.51
2018-12-22T02:23:29.478Z,46.70
2018-12-22T02:24:29.377Z,46.51
2018-12-22T02:25:29.299Z,46.99
2018-12-22T02:26:29.239Z,47.08
2018-12-22T02:27:29.193Z,47.56
2018-12-22T02:28:29.115Z,47.75
2018-12-22T02:29:29.028Z,48.52
2018-12-22T02:30:28.951Z,48.61
2018-12-22T02:31:28.885Z,48.71
2018-12-22T02:32:28.797Z,48.80
2018-12-22T02:33:28.727Z,49.28
2018-12-22T02:34:28.654Z,49.18
2018-12-22T02:35:28.585Z,49.28
2018-12-22T02:36:28.527Z,49.28
2018-12-22T02:37:28.448Z,49.37
2018-12-22T02:38:28.384Z,50.13
2018-12-22T02:39:28.312Z,48.61
2018-12-22T02:40:28.259Z,48.80
2018-12-22T02:41:28.169Z,47.75
2018-12-22T02:42:28.107Z,46.80
2018-12-22T02:43:28.015Z,45.37
2018-12-22T02:44:27.935Z,45.47
2018-12-22T02:45:27.861Z,45.18
2018-12-22T02:46:27.801Z,44.42
2018-12-22T02:47:27.730Z,44.42
2018-12-22T02:48:27.649Z,44.42
2018-12-22T02:49:27.577Z,44.23
2018-12-22T02:50:27.502Z,44.42
2018-12-22T02:51:27.431Z,44.42
2018-12-22T02:52:27.395Z,44.99
2018-12-22T02:53:27.306Z,45.56
2018-12-22T02:54:27.212Z,46.13
2018-12-22T02:55:27.139Z,45.56
2018-12-22T02:56:27.081Z,45.37
2018-12-22T02:57:27.036Z,44.70
2018-12-22T02:58:26.936Z,44.42
2018-12-22T02:59:26.863Z,43.75
2018-12-22T03:00:26.779Z,42.49
2018-12-22T03:01:26.732Z,42.20
2018-12-22T03:02:26.641Z,40.48
2018-12-22T03:03:26.563Z,39.63
2018-12-22T03:04:26.507Z,38.87
2018-12-22T03:05:26.431Z,39.15
2018-12-22T03:06:26.363Z,38.58
2018-12-22T03:07:26.286Z,38.29
2018-12-22T03:08:26.203Z,37.63
2018-12-22T03:09:26.128Z,37.34
2018-12-22T03:10:26.062Z,37.63
2018-12-22T03:11:25.995Z,37.63
2018-12-22T03:12:25.914Z,39.06
2018-12-22T03:13:25.841Z,39.65
2018-12-22T03:14:25.773Z,39.84
2018-12-22T03:15:25.728Z,40.39
2018-12-22T03:16:25.628Z,40.99
2018-12-22T03:17:25.565Z,41.27
2018-12-22T03:18:25.490Z,42.13
2018-12-22T03:19:25.411Z,42.60
2018-12-22T03:20:25.334Z,42.32
2018-12-22T03:21:25.262Z,42.51
2018-12-22T03:22:25.190Z,43.27
2018-12-22T03:23:25.118Z,43.75
2018-12-22T03:24:25.125Z,44.23
2018-12-22T03:25:24.990Z,43.56
2018-12-22T03:26:24.898Z,43.18
2018-12-22T03:27:24.825Z,42.99
2018-12-22T03:28:24.771Z,41.94
2018-12-22T03:29:24.691Z,41.72
2018-12-22T03:30:24.621Z,41.53
2018-12-22T03:31:24.557Z,41.25
2018-12-22T03:32:24.496Z,39.63
2018-12-22T03:33:24.411Z,39.34
2018-12-22T03:34:24.318Z,39.15
2018-12-22T03:35:24.284Z,39.25
2018-12-22T03:36:24.195Z,39.06
2018-12-22T03:37:24.118Z,38.49
2018-12-22T03:38:24.044Z,38.78
2018-12-22T03:39:23.967Z,38.78
2018-12-22T03:40:23.886Z,39.15
2018-12-22T03:41:23.810Z,38.78
2018-12-22T03:42:23.761Z,40.41
2018-12-22T03:43:23.677Z,40.70
2018-12-22T03:44:23.598Z,41.94
2018-12-22T03:45:23.524Z,41.75
2018-12-22T03:46:23.484Z,43.56
2018-12-22T03:47:23.411Z,44.04
2018-12-22T03:48:23.315Z,43.84
2018-12-22T03:49:23.244Z,43.94
2018-12-22T03:50:23.183Z,43.56
2018-12-22T03:51:23.109Z,43.65
2018-12-22T03:52:23.026Z,44.04
2018-12-22T03:53:22.959Z,43.56
2018-12-22T03:54:22.884Z,42.49
2018-12-22T03:55:22.811Z,42.01
2018-12-22T03:56:22.724Z,41.06
2018-12-22T03:57:22.662Z,40.51
2018-12-22T03:58:22.592Z,40.68
2018-12-22T03:59:25.036Z,40.58
2018-12-22T04:00:22.435Z,40.39
2018-12-22T04:01:22.363Z,39.25
2018-12-22T04:02:22.291Z,38.10
2018-12-22T04:03:22.224Z,38.29
2018-12-22T04:04:22.157Z,38.10
2018-12-22T04:05:22.082Z,38.20
2018-12-22T04:06:22.013Z,37.63
2018-12-22T04:07:21.940Z,37.34
2018-12-22T04:08:21.872Z,37.34
2018-12-22T04:09:21.779Z,37.06
2018-12-22T04:10:21.713Z,36.68
2018-12-22T04:11:21.650Z,36.87
2018-12-22T04:12:21.588Z,36.10
2018-12-22T04:13:21.506Z,36.30
2018-12-22T04:14:21.422Z,35.35
2018-12-22T04:15:21.349Z,34.20
2018-12-22T04:16:21.291Z,34.48
2018-12-22T04:17:21.209Z,33.63
2018-12-22T04:18:21.147Z,32.96
2018-12-22T04:19:21.068Z,33.34
2018-12-22T04:20:20.984Z,33.91
2018-12-22T04:21:20.912Z,33.53
2018-12-22T04:22:20.839Z,34.01
2018-12-22T04:23:20.766Z,34.77
2018-12-22T04:24:20.735Z,34.39
2018-12-22T04:25:20.634Z,34.96
2018-12-22T04:26:20.555Z,34.48
2018-12-22T04:27:20.488Z,34.77
2018-12-22T04:28:20.433Z,34.01
2018-12-22T04:29:20.331Z,34.01
2018-12-22T04:30:20.273Z,33.63
2018-12-22T04:31:20.193Z,33.53
2018-12-22T04:32:20.114Z,34.11
2018-12-22T04:33:20.036Z,34.20
2018-12-22T04:34:19.983Z,34.77
2018-12-22T04:35:19.894Z,35.82
2018-12-22T04:36:19.829Z,36.20
2018-12-22T04:37:19.754Z,36.49
2018-12-22T04:38:19.685Z,36.30
2018-12-22T04:39:19.613Z,37.34
2018-12-22T04:40:19.532Z,38.39
2018-12-22T04:41:19.457Z,39.06
2018-12-22T04:42:19.401Z,38.78
2018-12-22T04:43:19.318Z,39.73
2018-12-22T04:44:19.249Z,40.30
2018-12-22T04:45:19.180Z,40.48
2018-12-22T04:46:19.102Z,40.58
2018-12-22T04:47:19.022Z,40.39
2018-12-22T04:48:18.960Z,39.73
2018-12-22T04:49:18.886Z,39.53
2018-12-22T04:50:18.816Z,39.44
2018-12-22T04:51:18.743Z,39.63
2018-12-22T04:52:18.656Z,39.34
2018-12-22T04:53:18.605Z,38.96
2018-12-22T04:54:18.521Z,38.58
2018-12-22T04:55:18.449Z,37.92
2018-12-22T04:56:18.367Z,36.20
2018-12-22T04:57:18.302Z,32.96
2018-12-22T04:58:18.218Z,30.68
2018-12-22T04:59:18.152Z,31.24
2018-12-22T05:00:18.090Z,31.15
2018-12-22T05:01:18.019Z,30.87
2018-12-22T05:02:17.940Z,29.33
2018-12-22T05:03:17.862Z,27.51
2018-12-22T05:04:17.798Z,26.18
2018-12-22T05:05:17.717Z,26.66
2018-12-22T05:06:17.644Z,28.66
2018-12-22T05:07:17.577Z,28.28
2018-12-22T05:08:17.500Z,28.75
2018-12-22T05:09:17.463Z,27.44
2018-12-22T05:10:17.344Z,27.23
2018-12-22T05:11:17.298Z,28.09
2018-12-22T05:12:17.210Z,27.42
2018-12-22T05:13:17.136Z,27.14
2018-12-22T05:14:17.065Z,27.80
2018-12-22T05:15:17.002Z,28.38
2018-12-22T05:16:16.909Z,28.47
2018-12-22T05:17:16.833Z,27.33
2018-12-22T05:18:16.777Z,26.37
2018-12-22T05:19:16.704Z,26.66
2018-12-22T05:20:16.617Z,27.23
2018-12-22T05:21:16.538Z,25.81
2018-12-22T05:22:16.487Z,25.52
2018-12-22T05:23:16.415Z,26.47
2018-12-22T05:24:16.336Z,27.34
2018-12-22T05:25:16.261Z,27.33
2018-12-22T05:26:16.188Z,27.23
2018-12-22T05:27:16.124Z,25.42
2018-12-22T05:28:16.049Z,25.04
2018-12-22T05:29:15.959Z,25.13
2018-12-22T05:30:15.903Z,23.14
2018-12-22T05:31:15.833Z,21.90
2018-12-22T05:32:15.764Z,22.47
2018-12-22T05:33:15.676Z,23.80
2018-12-22T05:34:15.591Z,25.23
2018-12-22T05:35:15.521Z,26.47
2018-12-22T05:36:15.467Z,28.47
2018-12-22T05:37:15.380Z,30.57
2018-12-22T05:38:15.313Z,31.52
2018-12-22T05:39:15.244Z,32.37
2018-12-22T05:40:15.153Z,31.42
2018-12-22T05:41:15.084Z,30.47
2018-12-22T05:42:15.009Z,29.14
2018-12-22T05:43:14.935Z,28.66
2018-12-22T05:44:14.876Z,28.09
2018-12-22T05:45:14.807Z,27.51
2018-12-22T05:46:14.726Z,27.23
2018-12-22T05:47:14.655Z,25.99
2018-12-22T05:48:14.584Z,25.33
2018-12-22T05:49:14.495Z,24.76
2018-12-22T05:50:14.438Z,26.28
2018-12-22T05:51:14.363Z,26.09
2018-12-22T05:52:14.282Z,26.28
2018-12-22T05:53:14.203Z,26.47
2018-12-22T05:54:14.129Z,25.71
2018-12-22T05:55:14.071Z,25.81
2018-12-22T05:56:13.994Z,26.28
2018-12-22T05:57:13.928Z,25.81
2018-12-22T05:58:13.837Z,25.42
2018-12-22T05:59:13.764Z,24.47
2018-12-22T06:00:13.702Z,24.76
2018-12-22T06:01:13.629Z,25.71
2018-12-22T06:02:13.554Z,25.90
2018-12-22T06:03:13.484Z,26.95
2018-12-22T06:04:13.417Z,26.56
2018-12-22T06:05:13.325Z,26.95
2018-12-22T06:06:13.262Z,26.47
2018-12-22T06:07:13.195Z,25.71
2018-12-22T06:08:13.106Z,26.37
2018-12-22T06:09:13.036Z,27.14
2018-12-22T06:10:12.975Z,27.51
2018-12-22T06:11:12.890Z,28.19
2018-12-22T06:12:12.834Z,28.75
2018-12-22T06:13:12.753Z,28.56
2018-12-22T06:14:12.685Z,29.23
2018-12-22T06:15:12.609Z,29.33
2018-12-22T06:16:12.557Z,29.23
2018-12-22T06:17:12.466Z,27.99
2018-12-22T06:18:12.371Z,27.61
2018-12-22T06:19:12.306Z,26.85
2018-12-22T06:20:12.239Z,27.33
2018-12-22T06:21:12.170Z,28.47
2018-12-22T06:22:12.082Z,25.23
2018-12-22T06:23:12.016Z,20.47
2018-12-22T06:24:11.953Z,16.47
2018-12-22T06:25:11.882Z,15.05
2018-12-22T06:26:11.801Z,14.28
2018-12-22T06:27:11.729Z,16.75
2018-12-22T06:28:11.644Z,17.61
2018-12-22T06:29:11.572Z,20.37
2018-12-22T06:30:11.513Z,21.99
2018-12-22T06:31:11.437Z,22.38
2018-12-22T06:32:11.371Z,23.61
2018-12-22T06:33:11.301Z,23.52
2018-12-22T06:34:11.203Z,24.57
2018-12-22T06:35:11.139Z,24.95
2018-12-22T06:36:11.075Z,25.71
2018-12-22T06:37:11.001Z,26.47
2018-12-22T06:38:10.922Z,26.58
2018-12-22T06:39:10.843Z,27.44
2018-12-22T06:40:10.782Z,28.20
2018-12-22T06:41:10.710Z,25.04
2018-12-22T06:42:10.635Z,20.37
2018-12-22T06:43:10.563Z,18.09
2018-12-22T06:44:10.486Z,16.47
2018-12-22T06:45:10.414Z,17.23
2018-12-22T06:46:10.330Z,17.52
2018-12-22T06:47:10.291Z,17.71
2018-12-22T06:48:10.195Z,18.95
2018-12-22T06:49:10.123Z,20.85
2018-12-22T06:50:10.054Z,22.96
2018-12-22T06:51:09.982Z,23.61
2018-12-22T06:52:09.900Z,23.33
2018-12-22T06:53:09.824Z,23.80
2018-12-22T06:54:09.766Z,24.29
2018-12-22T06:55:09.693Z,24.66
2018-12-22T06:56:09.605Z,25.82
2018-12-22T06:57:09.532Z,27.25
2018-12-22T06:58:09.479Z,28.20
2018-12-22T06:59:09.392Z,28.10
2018-12-22T07:00:17.453Z,26.85
2018-12-22T07:01:09.255Z,26.67
2018-12-22T07:02:09.171Z,27.34
2018-12-22T07:03:09.097Z,27.53
2018-12-22T07:04:09.040Z,27.53
2018-12-22T07:05:08.964Z,28.67
2018-12-22T07:06:08.887Z,30.68
2018-12-22T07:07:08.818Z,30.58
2018-12-22T07:08:08.738Z,31.44
2018-12-22T07:09:08.659Z,31.24
2018-12-22T07:10:08.604Z,31.15
2018-12-22T07:11:08.527Z,33.53
2018-12-22T07:12:08.449Z,33.06
2018-12-22T07:13:08.376Z,31.34
2018-12-22T07:14:08.304Z,31.24
2018-12-22T07:15:08.227Z,30.47
2018-12-22T07:16:08.158Z,29.14
2018-12-22T07:17:08.088Z,27.80
2018-12-22T07:18:08.017Z,28.19
2018-12-22T07:19:07.941Z,28.19
2018-12-22T07:20:07.864Z,28.94
2018-12-22T07:21:07.807Z,28.47
2018-12-22T07:22:07.716Z,28.85
2018-12-22T07:23:07.647Z,28.56
2018-12-22T07:24:07.581Z,28.94
2018-12-22T07:25:07.513Z,29.23
2018-12-22T07:26:07.422Z,27.99
2018-12-22T07:27:07.369Z,26.09
2018-12-22T07:28:07.292Z,24.95
2018-12-22T07:29:09.191Z,24.66
2018-12-22T07:30:07.150Z,25.90
2018-12-22T07:31:07.073Z,25.13
2018-12-22T07:32:07.005Z,24.28
2018-12-22T07:33:06.918Z,24.76
2018-12-22T07:34:06.843Z,24.57
2018-12-22T07:35:06.770Z,24.66
2018-12-22T07:36:06.707Z,23.99
2018-12-22T07:37:06.634Z,22.94
2018-12-22T07:38:06.562Z,23.61
2018-12-22T07:39:06.488Z,24.95
2018-12-22T07:40:06.406Z,26.28
2018-12-22T07:41:06.338Z,26.85
2018-12-22T07:42:06.275Z,28.56
2018-12-22T07:43:06.205Z,29.99
2018-12-22T07:44:06.122Z,30.47
2018-12-22T07:45:06.039Z,30.28
2018-12-22T07:46:05.981Z,30.57
2018-12-22T07:47:05.893Z,31.32
2018-12-22T07:48:05.835Z,31.42
2018-12-22T07:49:05.759Z,31.42
2018-12-22T07:50:05.685Z,32.18
2018-12-22T07:51:05.611Z,33.33
2018-12-22T07:52:05.589Z,34.09
2018-12-22T07:53:05.459Z,34.39
2018-12-22T07:54:05.422Z,35.35
2018-12-22T07:55:05.315Z,36.39
2018-12-22T07:56:05.258Z,36.58
2018-12-22T07:57:05.193Z,36.58
2018-12-22T07:58:05.100Z,36.66
2018-12-22T07:59:05.039Z,37.34
2018-12-22T08:00:04.959Z,37.73
2018-12-22T08:01:04.890Z,38.68
2018-12-22T08:02:04.812Z,38.87
2018-12-22T08:03:04.740Z,39.53
2018-12-22T08:04:04.656Z,39.63
2018-12-22T08:05:04.667Z,39.32
2018-12-22T08:06:04.526Z,38.87
2018-12-22T08:07:04.453Z,38.56
2018-12-22T08:08:04.366Z,38.87
2018-12-22T08:09:04.311Z,39.34
2018-12-22T08:10:04.357Z,40.48
2018-12-22T08:11:04.152Z,40.48
2018-12-22T08:12:04.084Z,41.16
2018-12-22T08:13:04.014Z,40.77
2018-12-22T08:14:03.986Z,40.77
2018-12-22T08:15:05.716Z,41.25
2018-12-22T08:16:03.795Z,41.53
2018-12-22T08:17:03.729Z,42.30
2018-12-22T08:18:03.657Z,42.96
2018-12-22T08:19:03.580Z,43.16
2018-12-22T08:20:03.515Z,44.59
2018-12-22T08:21:03.443Z,44.20
2018-12-22T08:22:03.348Z,44.30
2018-12-22T08:23:03.292Z,44.49
2018-12-22T08:24:03.219Z,44.49
2018-12-22T08:25:03.145Z,44.30
2018-12-22T08:26:03.067Z,44.87
2018-12-22T08:27:03.001Z,45.15
2018-12-22T08:28:02.933Z,45.54
2018-12-22T08:29:02.848Z,46.01
2018-12-22T08:30:02.787Z,46.32
2018-12-22T08:31:02.721Z,46.89
2018-12-22T08:32:02.630Z,47.47
2018-12-22T08:33:02.574Z,47.56
2018-12-22T08:34:02.505Z,47.56
2018-12-22T08:35:02.408Z,48.23
2018-12-22T08:36:02.351Z,48.13
2018-12-22T08:37:02.275Z,48.23
2018-12-22T08:38:02.204Z,48.52
2018-12-22T08:39:02.148Z,48.71
2018-12-22T08:40:02.054Z,48.61
2018-12-22T08:41:01.981Z,48.61
2018-12-22T08:42:01.913Z,49.37
2018-12-22T08:43:01.842Z,49.47
2018-12-22T08:44:01.775Z,48.71
2018-12-22T08:45:01.701Z,49.37
2018-12-22T08:46:01.631Z,49.56
2018-12-22T08:47:01.554Z,49.37
2018-12-22T08:48:01.486Z,49.56
2018-12-22T08:49:01.423Z,49.56
2018-12-22T08:50:08.953Z,50.23
2018-12-22T08:51:02.743Z,50.23
2018-12-22T08:52:01.210Z,50.13
2018-12-22T08:53:01.114Z,50.13
2018-12-22T08:54:01.067Z,50.13
2018-12-22T08:55:00.972Z,49.76
2018-12-22T08:56:00.914Z,50.32
2018-12-22T08:57:00.865Z,50.61
2018-12-22T08:58:00.799Z,50.52
2018-12-22T08:59:00.693Z,50.13
2018-12-22T09:00:00.621Z,50.52
2018-12-22T09:01:00.561Z,51.28
2018-12-22T09:02:00.484Z,51.18
2018-12-22T09:03:00.419Z,51.18
2018-12-22T09:04:00.349Z,51.09
2018-12-22T09:05:00.254Z,51.09
2018-12-22T09:06:00.182Z,51.47
2018-12-22T09:07:00.113Z,51.47
2018-12-22T09:08:00.054Z,51.47
2018-12-22T09:08:59.981Z,51.56
2018-12-22T09:09:59.901Z,51.47
2018-12-22T09:10:59.849Z,51.47
2018-12-22T09:11:59.765Z,51.85
2018-12-22T09:12:59.699Z,52.23
2018-12-22T09:13:59.625Z,52.04
2018-12-22T09:14:59.555Z,53.00
2018-12-22T09:15:59.470Z,53.09
2018-12-22T09:16:59.416Z,53.00
2018-12-22T09:17:59.339Z,52.80
2018-12-22T09:18:59.270Z,52.90
2018-12-22T09:19:59.183Z,53.28
2018-12-22T09:20:59.115Z,53.41
2018-12-22T09:21:59.051Z,53.41
2018-12-22T09:22:58.987Z,53.88
2018-12-22T09:23:58.913Z,54.45
2018-12-22T09:24:58.841Z,54.36
2018-12-22T09:25:58.774Z,55.12
2018-12-22T09:26:58.703Z,54.93
2018-12-22T09:27:58.619Z,55.60
2018-12-22T09:28:58.561Z,55.53
2018-12-22T09:29:58.487Z,56.58
2018-12-22T09:31:00.950Z,55.91
2018-12-22T09:31:58.353Z,56.74
2018-12-22T09:32:58.278Z,56.74
2018-12-22T09:33:58.193Z,56.84
2018-12-22T09:34:58.121Z,57.50
2018-12-22T09:35:58.064Z,57.60
2018-12-22T09:36:57.992Z,57.60
2018-12-22T09:37:57.933Z,57.70
2018-12-22T09:38:57.852Z,57.41
2018-12-22T09:39:57.770Z,57.72
2018-12-22T09:40:57.718Z,58.48
2018-12-22T09:41:57.630Z,57.72
2018-12-22T09:42:57.555Z,58.29
2018-12-22T09:43:57.513Z,58.46
2018-12-22T09:44:57.535Z,58.26
2018-12-22T09:45:57.359Z,58.36
2018-12-22T09:46:57.290Z,58.58
2018-12-22T09:47:57.211Z,58.55
2018-12-22T09:48:57.143Z,58.39
2018-12-22T09:49:57.077Z,58.77
2018-12-22T09:50:57.008Z,58.58
2018-12-22T09:51:56.927Z,58.87
2018-12-22T09:52:56.851Z,58.97
2018-12-22T09:53:56.803Z,59.34
2018-12-22T09:54:56.739Z,59.34
2018-12-22T09:55:56.657Z,59.82
2018-12-22T09:56:56.587Z,59.34
2018-12-22T09:57:56.522Z,59.73
2018-12-22T09:58:56.450Z,60.04
2018-12-22T09:59:56.369Z,60.33
2018-12-22T10:00:56.297Z,60.33
2018-12-22T10:01:56.242Z,60.24
2018-12-22T10:02:56.159Z,60.81
2018-12-22T10:03:56.110Z,60.61
2018-12-22T10:04:56.027Z,60.42
2018-12-22T10:05:55.951Z,60.24
2018-12-22T10:06:55.897Z,60.24
2018-12-22T10:07:55.820Z,60.24
2018-12-22T10:08:55.747Z,60.52
2018-12-22T10:09:55.680Z,60.24
2018-12-22T10:10:55.611Z,60.61
2018-12-22T10:11:55.528Z,60.14
2018-12-22T10:12:55.460Z,60.52
2018-12-22T10:13:55.398Z,60.14
2018-12-22T10:14:55.330Z,60.24
2018-12-22T10:15:55.248Z,60.33
2018-12-22T10:16:55.199Z,60.71
2018-12-22T10:17:55.176Z,60.71
2018-12-22T10:18:55.037Z,60.52
2018-12-22T10:19:54.988Z,60.71
2018-12-22T10:20:54.918Z,60.64
2018-12-22T10:21:54.846Z,60.71
2018-12-22T10:22:54.767Z,61.10
2018-12-22T10:23:54.707Z,60.81
2018-12-22T10:24:54.638Z,61.10
2018-12-22T10:25:54.567Z,61.22
2018-12-22T10:26:54.501Z,61.32
2018-12-22T10:27:54.415Z,61.03
2018-12-22T10:28:54.349Z,60.74
2018-12-22T10:29:54.277Z,60.93
2018-12-22T10:30:54.205Z,61.13
2018-12-22T10:31:54.145Z,61.13
2018-12-22T10:32:54.081Z,61.00
2018-12-22T10:33:54.010Z,61.03
2018-12-22T10:34:53.943Z,61.79
2018-12-22T10:35:53.863Z,60.74
2018-12-22T10:36:53.806Z,61.69
2018-12-22T10:37:53.730Z,61.22
2018-12-22T10:38:53.664Z,61.89
2018-12-22T10:39:53.590Z,61.89
2018-12-22T10:40:53.531Z,61.69
2018-12-22T10:41:55.539Z,61.79
2018-12-22T10:42:53.377Z,61.60
2018-12-22T10:43:53.316Z,61.69
2018-12-22T10:44:53.249Z,61.60
2018-12-22T10:45:53.163Z,61.60
2018-12-22T10:46:53.095Z,61.60
2018-12-22T10:47:53.044Z,62.18
2018-12-22T10:48:52.970Z,61.69
2018-12-22T10:49:52.907Z,61.51
2018-12-22T10:50:52.832Z,61.69
2018-12-22T10:51:52.753Z,61.79
2018-12-22T10:52:52.700Z,61.69
2018-12-22T10:53:52.630Z,61.60
2018-12-22T10:54:52.554Z,61.51
2018-12-22T10:55:52.500Z,62.27
2018-12-22T10:56:52.428Z,62.18
2018-12-22T10:57:52.341Z,62.08
2018-12-22T10:58:52.282Z,61.98
2018-12-22T10:59:52.313Z,61.69
2018-12-22T11:00:52.149Z,61.89
2018-12-22T11:01:52.077Z,61.69
2018-12-22T11:02:52.000Z,61.69
2018-12-22T11:03:51.926Z,62.18
2018-12-22T11:04:51.870Z,61.69
2018-12-22T11:05:51.811Z,61.79
2018-12-22T11:06:51.717Z,61.38
2018-12-22T11:07:51.654Z,61.32
2018-12-22T11:08:51.586Z,61.69
2018-12-22T11:09:51.510Z,61.38
2018-12-22T11:10:51.439Z,60.90
2018-12-22T11:11:51.377Z,61.13
2018-12-22T11:12:51.308Z,60.17
2018-12-22T11:13:51.241Z,61.32
2018-12-22T11:14:51.177Z,60.46
2018-12-22T11:15:51.110Z,60.07
2018-12-22T11:16:51.033Z,59.98
2018-12-22T11:17:50.964Z,60.27
2018-12-22T11:18:50.893Z,60.07
2018-12-22T11:19:50.811Z,60.07
2018-12-22T11:20:50.761Z,59.38
2018-12-22T11:21:50.671Z,59.41
2018-12-22T11:22:50.599Z,59.98
2018-12-22T11:23:50.549Z,59.50
2018-12-22T11:24:50.485Z,59.41
2018-12-22T11:25:50.394Z,59.41
2018-12-22T11:26:50.327Z,59.69
2018-12-22T11:27:50.284Z,59.50
2018-12-22T11:28:50.199Z,59.41
2018-12-22T11:29:50.126Z,59.31
2018-12-22T11:30:50.061Z,58.64
2018-12-22T11:31:49.978Z,58.93
2018-12-22T11:32:49.909Z,58.93
2018-12-22T11:33:49.845Z,58.73
2018-12-22T11:34:49.794Z,58.64
2018-12-22T11:35:49.715Z,58.36
2018-12-22T11:36:49.644Z,58.07
2018-12-22T11:37:49.576Z,58.36
2018-12-22T11:38:49.500Z,58.36
2018-12-22T11:39:49.430Z,58.07
2018-12-22T11:40:49.351Z,57.97
2018-12-22T11:41:49.298Z,57.87
2018-12-22T11:42:49.228Z,57.87
2018-12-22T11:43:49.153Z,57.59
2018-12-22T11:44:49.080Z,57.31
2018-12-22T11:45:49.023Z,57.62
2018-12-22T11:46:48.943Z,58.29
2018-12-22T11:47:48.881Z,58.00
2018-12-22T11:48:48.814Z,57.62
2018-12-22T11:49:48.782Z,57.43
2018-12-22T11:50:48.674Z,57.62
2018-12-22T11:51:48.595Z,57.71
2018-12-22T11:52:48.544Z,57.43
2018-12-22T11:53:48.459Z,57.71
2018-12-22T11:54:48.406Z,57.33
2018-12-22T11:55:48.327Z,56.95
2018-12-22T11:56:48.267Z,56.76
2018-12-22T11:57:48.199Z,56.85
2018-12-22T11:58:48.113Z,56.95
2018-12-22T11:59:48.055Z,57.14
2018-12-22T12:00:47.981Z,56.57
2018-12-22T12:01:47.919Z,56.67
2018-12-22T12:02:47.857Z,56.47
2018-12-22T12:03:47.769Z,56.47
2018-12-22T12:04:47.702Z,55.42
2018-12-22T12:05:47.629Z,55.61
2018-12-22T12:06:47.563Z,55.23
2018-12-22T12:07:47.505Z,55.23
2018-12-22T12:08:47.432Z,54.66
2018-12-22T12:09:47.370Z,54.75
2018-12-22T12:10:47.301Z,55.04
2018-12-22T12:11:47.219Z,55.23
2018-12-22T12:12:47.154Z,55.13
2018-12-22T12:13:47.084Z,54.94
2018-12-22T12:14:47.014Z,54.75
2018-12-22T12:15:46.937Z,55.35
2018-12-22T12:16:46.866Z,55.32
2018-12-22T12:17:46.822Z,54.78
2018-12-22T12:18:46.753Z,53.92
2018-12-22T12:19:46.673Z,54.27
2018-12-22T12:20:46.605Z,54.21
2018-12-22T12:21:46.521Z,54.39
2018-12-22T12:22:46.470Z,54.59
2018-12-22T12:23:46.417Z,53.99
2018-12-22T12:24:46.332Z,54.30
2018-12-22T12:25:46.261Z,54.02
2018-12-22T12:26:46.190Z,53.51
2018-12-22T12:27:46.108Z,54.02
2018-12-22T12:28:46.043Z,53.82
2018-12-22T12:29:45.983Z,53.92
2018-12-22T12:30:45.912Z,53.73
2018-12-22T12:31:52.023Z,53.92
2018-12-22T12:32:45.766Z,53.63
2018-12-22T12:33:45.699Z,53.63
2018-12-22T12:34:45.638Z,53.82
2018-12-22T12:35:45.571Z,53.73
2018-12-22T12:36:45.509Z,53.53
2018-12-22T12:37:45.429Z,54.11
2018-12-22T12:38:45.361Z,53.92
2018-12-22T12:39:45.306Z,54.02
2018-12-22T12:40:45.239Z,54.21
2018-12-22T12:41:45.149Z,54.39
2018-12-22T12:42:45.076Z,54.49
2018-12-22T12:43:45.089Z,54.39
2018-12-22T12:44:44.967Z,55.16
2018-12-22T12:45:44.890Z,54.97
2018-12-22T12:46:44.801Z,54.88
2018-12-22T12:47:44.750Z,54.88
2018-12-22T12:48:44.677Z,54.88
2018-12-22T12:49:44.606Z,54.78
2018-12-22T12:50:44.547Z,55.26
2018-12-22T12:51:44.458Z,55.35